Elmswell, United Kingdom
Current Conditions -  °F | °C
As of 1:50 AM on Tuesday 21 Oct 2014 (Local Time) from EGUW Reporting Station
Broken Clouds Broken Clouds  
Wind Chill: 54°   Ceiling: 17000
Heat Index: 54°   Visibility: 6mi
Dew Point: 50°   Wind: 12mph
Humidity: 88%   Direction: 200°SSW
Pressure: 29.77"   Gusts: NA
Location:  52.24°N, 0.91°E
Report Text: EGUW 210050Z AUTO 20010KT 9999 FEW015/// BKN170/// 12/10 Q1008
Loading
Personal Weather Stations






























Interactive Weather Map New forecast layout! Learn more

10-Day Weather Forecast

Advertisements
Track Severe Weather on mobile